Time;durP1;ratioP1;P1;durP2;ratioP2;P2;SDS_P1;SDS_P2;PMS_P1;PMS_P2;Temp;Humidity;BMP_temperature;BMP_pressure;BME280_temperature;BME280_humidity;BME280_pressure;Samples;Min_cycle;Max_cycle;Signal;HPM_P1;HPM_P2
2022/05/01 00:00:05;;;;;;;8.45;7.53;;;8.40;99.90;;;;;;4926830;29;20056;-87
2022/05/01 00:02:33;;;;;;;11.65;9.43;;;8.40;99.90;;;;;;4925873;29;20051;-87
2022/05/01 00:05:04;;;;;;;9.52;8.52;;;8.40;99.90;;;;;;4923055;29;20060;-86
2022/05/01 00:07:36;;;;;;;8.20;7.05;;;8.40;99.90;;;;;;4909623;29;20048;-87
2022/05/01 00:10:04;;;;;;;7.82;6.68;;;8.40;99.90;;;;;;4925991;29;20040;-87
2022/05/01 00:12:33;;;;;;;8.43;6.32;;;8.40;99.90;;;;;;4926485;29;20060;-86
2022/05/01 00:15:01;;;;;;;7.70;6.95;;;8.40;99.90;;;;;;4912709;29;20063;-86
2022/05/01 00:17:29;;;;;;;10.00;9.02;;;8.40;99.90;;;;;;4928868;28;20063;-86
2022/05/01 00:19:58;;;;;;;8.45;7.60;;;8.40;99.90;;;;;;4929293;29;20056;-86
2022/05/01 00:22:27;;;;;;;11.88;7.28;;;8.50;99.90;;;;;;4928769;29;20059;-86
2022/05/01 00:24:55;;;;;;;9.45;7.38;;;8.50;99.90;;;;;;4929761;29;20059;-87
2022/05/01 00:27:23;;;;;;;8.70;7.80;;;8.40;99.90;;;;;;4928669;29;20814;-86
2022/05/01 00:29:51;;;;;;;8.90;7.00;;;8.40;99.90;;;;;;4913042;28;20047;-87
2022/05/01 00:32:19;;;;;;;10.07;8.63;;;8.40;99.90;;;;;;4929197;29;20060;-86
2022/05/01 00:37:33;;;;;;;12.27;7.95;;;8.40;99.90;;;;;;4893367;29;20091;-86
2022/05/01 00:40:01;;;;;;;12.25;8.65;;;8.40;99.90;;;;;;4935450;29;20052;-86
2022/05/01 00:42:29;;;;;;;7.20;6.38;;;8.40;99.90;;;;;;4928755;29;20055;-86
2022/05/01 00:44:57;;;;;;;7.03;6.20;;;8.30;99.90;;;;;;4930350;29;20052;-86
2022/05/01 00:47:25;;;;;;;10.75;6.13;;;8.30;99.90;;;;;;4928430;29;20052;-86
2022/05/01 00:49:53;;;;;;;8.30;7.07;;;8.30;99.90;;;;;;4929993;28;20040;-86
2022/05/01 00:52:25;;;;;;;6.80;6.10;;;8.30;99.90;;;;;;4930123;29;20052;-87
2022/05/01 00:54:57;;;;;;;10.48;8.40;;;8.30;99.90;;;;;;4930197;28;20051;-86
2022/05/01 00:57:25;;;;;;;13.05;7.13;;;8.30;99.90;;;;;;4928899;29;20414;-86
2022/05/01 00:59:54;;;;;;;23.10;9.93;;;8.30;99.90;;;;;;4929734;28;20051;-86
2022/05/01 01:02:22;;;;;;;7.40;6.00;;;8.40;99.90;;;;;;4928179;29;20418;-86
2022/05/01 01:04:50;;;;;;;10.73;7.65;;;8.20;99.90;;;;;;4929161;29;20822;-86
2022/05/01 01:07:18;;;;;;;6.43;5.82;;;8.30;99.90;;;;;;4912385;29;20051;-86
2022/05/01 01:09:45;;;;;;;8.82;6.35;;;8.20;99.90;;;;;;4912516;28;20056;-86
2022/05/01 01:15:10;;;;;;;8.38;7.57;;;8.30;99.90;;;;;;4941526;28;20388;-86
2022/05/01 01:17:41;;;;;;;8.90;8.00;;;8.30;99.90;;;;;;4927587;28;20478;-86
2022/05/01 01:20:18;;;;;;;12.13;7.60;;;8.30;99.90;;;;;;4928628;29;20047;-86
2022/05/01 01:22:47;;;;;;;9.40;7.95;;;8.30;99.90;;;;;;4928401;29;20048;-86
2022/05/01 01:25:18;;;;;;;7.03;6.38;;;8.30;99.90;;;;;;4928647;29;20056;-85
2022/05/01 01:27:47;;;;;;;;;;;8.20;99.90;;;;;;4930083;28;20055;-85
2022/05/01 01:33:02;;;;;;;6.88;6.25;;;8.30;99.90;;;;;;4944878;29;20063;-86
2022/05/01 01:35:33;;;;;;;6.45;5.80;;;8.30;99.90;;;;;;4927836;28;20075;-86
2022/05/01 01:38:01;;;;;;;;;;;8.30;99.90;;;;;;4943953;28;20054;-86
2022/05/01 01:40:35;;;;;;;7.28;5.97;;;8.30;99.90;;;;;;4928350;29;19926;-86
2022/05/01 01:43:05;;;;;;;9.48;7.30;;;8.30;99.90;;;;;;4928487;29;20249;-86
2022/05/01 01:45:33;;;;;;;8.32;6.18;;;8.30;99.90;;;;;;4928295;28;20052;-86
2022/05/01 01:48:17;;;;;;;7.53;6.05;;;8.30;99.90;;;;;;4927286;29;20060;-86
2022/05/01 01:50:59;;;;;;;23.10;7.30;;;8.30;99.90;;;;;;4925492;29;20044;-86
2022/05/01 01:53:28;;;;;;;10.93;8.40;;;8.30;99.90;;;;;;4905709;29;20051;-86
2022/05/01 01:56:00;;;;;;;10.60;8.63;;;8.30;99.90;;;;;;4914188;29;20055;-86
2022/05/01 01:58:33;;;;;;;9.70;8.40;;;8.20;99.90;;;;;;4912077;29;20052;-86
2022/05/01 02:01:03;;;;;;;9.52;7.78;;;8.30;99.90;;;;;;4912833;29;20087;-85
2022/05/01 02:03:33;;;;;;;13.77;10.45;;;8.30;99.90;;;;;;4912187;29;20423;-86
2022/05/01 02:06:05;;;;;;;12.05;10.20;;;8.20;99.90;;;;;;4911917;29;20063;-86
2022/05/01 02:08:34;;;;;;;12.27;9.25;;;8.20;99.90;;;;;;4896713;29;20396;-86
2022/05/01 02:11:05;;;;;;;11.02;8.80;;;8.20;99.90;;;;;;4896934;29;20059;-86
2022/05/01 02:13:35;;;;;;;12.77;10.63;;;8.20;99.90;;;;;;4934401;28;20051;-86
2022/05/01 02:16:03;;;;;;;13.18;8.80;;;8.20;99.90;;;;;;4916080;29;20051;-86
2022/05/01 02:18:31;;;;;;;11.10;8.88;;;8.20;99.90;;;;;;4931583;29;20411;-86
2022/05/01 02:23:45;;;;;;;12.70;8.88;;;8.10;99.90;;;;;;4932467;29;20050;-87
2022/05/01 02:26:13;;;;;;;12.50;9.40;;;8.10;99.90;;;;;;4915080;29;20407;-86
2022/05/01 02:28:41;;;;;;;10.65;8.57;;;8.10;99.90;;;;;;4900027;29;20415;-86
2022/05/01 02:31:09;;;;;;;13.82;10.27;;;8.10;99.90;;;;;;4937890;29;20600;-86
2022/05/01 02:33:38;;;;;;;11.82;9.43;;;8.20;99.90;;;;;;4946135;28;20047;-86
2022/05/01 02:36:07;;;;;;;13.23;9.00;;;8.10;99.90;;;;;;4918717;29;20056;-86
2022/05/01 02:38:36;;;;;;;12.38;8.35;;;8.10;99.90;;;;;;4913312;29;20048;-86
2022/05/01 02:41:04;;;;;;;12.18;8.50;;;8.10;99.90;;;;;;4915948;29;20051;-86
2022/05/01 02:43:47;;;;;;;12.43;9.70;;;8.00;99.90;;;;;;4915204;29;20058;-86
2022/05/01 02:46:32;;;;;;;11.55;8.80;;;8.10;99.90;;;;;;4916980;29;20052;-86
2022/05/01 02:49:00;;;;;;;10.30;9.10;;;8.10;99.90;;;;;;4915088;29;20051;-86
2022/05/01 02:51:28;;;;;;;13.95;9.45;;;8.20;99.90;;;;;;4911463;29;20047;-86
2022/05/01 02:53:56;;;;;;;11.50;10.02;;;8.20;99.90;;;;;;4911612;29;20055;-86
2022/05/01 02:56:24;;;;;;;11.95;9.82;;;8.20;99.90;;;;;;4896325;29;20055;-87
2022/05/01 02:58:52;;;;;;;12.98;11.40;;;8.20;99.90;;;;;;4911101;29;20570;-87
2022/05/01 03:01:20;;;;;;;10.38;9.23;;;8.20;99.90;;;;;;4911666;29;20067;-86
2022/05/01 03:03:48;;;;;;;12.15;8.52;;;8.20;99.90;;;;;;4922069;29;20055;-86
2022/05/01 03:06:16;;;;;;;12.43;8.98;;;8.20;99.90;;;;;;4949058;29;20047;-86
2022/05/01 03:08:44;;;;;;;10.75;9.63;;;8.20;99.90;;;;;;4933998;29;20097;-86
2022/05/01 03:11:13;;;;;;;9.90;7.20;;;8.20;99.90;;;;;;4965822;28;20043;-86
2022/05/01 03:13:41;;;;;;;9.73;7.30;;;8.20;99.90;;;;;;4940833;28;20509;-86
2022/05/01 03:16:09;;;;;;;9.95;7.85;;;8.10;99.90;;;;;;4953406;28;20054;-86
2022/05/01 03:24:09;;;;;;;12.40;9.32;;;8.10;99.90;;;;;;4969348;28;20489;-86
2022/05/01 03:26:38;;;;;;;8.52;7.70;;;8.10;99.90;;;;;;4952390;28;20047;-86
2022/05/01 03:29:06;;;;;;;13.20;11.88;;;8.10;99.90;;;;;;4952513;28;20057;-86
2022/05/01 03:31:37;;;;;;;16.83;12.00;;;8.10;99.90;;;;;;4936139;28;20061;-87
2022/05/01 03:34:08;;;;;;;13.05;9.15;;;8.00;99.90;;;;;;4920975;28;20039;-87
2022/05/01 03:36:36;;;;;;;11.00;8.63;;;8.00;99.90;;;;;;4968459;28;20058;-87
2022/05/01 03:39:05;;;;;;;11.07;8.40;;;8.00;99.90;;;;;;4936411;28;20061;-86
2022/05/01 03:41:33;;;;;;;11.95;10.43;;;8.10;99.90;;;;;;4951902;28;20421;-86
2022/05/01 03:44:03;;;;;;;13.65;11.07;;;8.10;99.90;;;;;;4952959;28;20043;-87
2022/05/01 03:46:31;;;;;;;13.93;10.55;;;8.20;99.90;;;;;;4952361;28;20060;-86
2022/05/01 03:48:59;;;;;;;14.85;11.25;;;8.20;99.90;;;;;;4936687;28;20070;-86
2022/05/01 03:51:52;;;;;;;12.77;10.07;;;8.20;99.90;;;;;;4951524;28;20043;-86
2022/05/01 03:55:18;;;;;;;12.60;10.52;;;8.20;99.90;;;;;;4908699;29;20043;-86
2022/05/01 03:58:23;;;;;;;13.27;9.40;;;8.20;99.90;;;;;;4920676;29;20040;-86
2022/05/01 04:01:28;;;;;;;15.55;9.45;;;8.10;99.90;;;;;;4943782;29;20454;-86
2022/05/01 04:03:59;;;;;;;16.95;12.63;;;8.20;99.90;;;;;;4917913;29;20384;-86
2022/05/01 04:06:27;;;;;;;10.60;9.50;;;8.10;99.90;;;;;;4893889;29;20052;-86
2022/05/01 04:08:55;;;;;;;13.80;11.00;;;8.10;99.90;;;;;;4895359;29;20063;-86
2022/05/01 04:11:23;;;;;;;11.82;9.35;;;8.10;99.90;;;;;;4879095;29;20072;-86
2022/05/01 04:13:51;;;;;;;12.23;10.32;;;8.10;99.90;;;;;;4899896;29;20079;-86
2022/05/01 04:16:19;;;;;;;14.57;12.77;;;8.00;99.90;;;;;;4895003;29;20055;-86
2022/05/01 04:18:50;;;;;;;13.25;11.45;;;7.90;99.90;;;;;;4894320;29;20056;-86
2022/05/01 04:21:23;;;;;;;12.82;10.73;;;7.90;99.90;;;;;;4911305;29;20056;-85
2022/05/01 04:23:52;;;;;;;12.52;9.32;;;7.90;99.90;;;;;;4910397;29;20059;-86
2022/05/01 04:26:20;;;;;;;15.35;11.07;;;7.80;99.90;;;;;;4910293;29;20048;-86
2022/05/01 04:31:39;;;;;;;14.98;10.25;;;7.80;99.90;;;;;;4909932;29;20051;-86
2022/05/01 04:34:14;;;;;;;20.63;12.52;;;7.80;99.90;;;;;;4894984;29;20596;-86
2022/05/01 04:36:44;;;;;;;16.15;12.20;;;7.80;99.90;;;;;;4910269;29;20055;-86
2022/05/01 04:39:18;;;;;;;18.70;13.10;;;7.80;99.90;;;;;;4910142;29;20087;-87
2022/05/01 04:41:49;;;;;;;22.70;14.95;;;7.80;99.90;;;;;;4894709;28;20052;-86
2022/05/01 04:44:18;;;;;;;15.43;13.27;;;7.80;99.90;;;;;;4894867;29;20063;-86
2022/05/01 04:46:49;;;;;;;20.58;13.45;;;7.90;99.90;;;;;;4910052;29;20398;-86
2022/05/01 04:49:21;;;;;;;19.80;14.48;;;7.80;99.90;;;;;;4894695;29;20052;-86
2022/05/01 04:51:51;;;;;;;17.08;11.73;;;7.90;99.90;;;;;;4894398;29;20044;-86
2022/05/01 04:54:19;;;;;;;18.38;13.60;;;7.90;99.90;;;;;;4909917;29;20044;-86
2022/05/01 04:57:05;;;;;;;19.27;14.40;;;7.90;99.90;;;;;;4910614;29;20519;-87
2022/05/01 04:59:36;;;;;;;21.35;13.32;;;7.90;99.90;;;;;;4895118;29;20070;-87
2022/05/01 05:02:05;;;;;;;17.92;13.98;;;7.90;99.90;;;;;;4887848;29;20059;-86
2022/05/01 05:04:36;;;;;;;17.52;11.90;;;7.90;99.90;;;;;;4905778;29;20052;-86
2022/05/01 05:07:16;;;;;;;23.65;15.50;;;7.90;99.90;;;;;;4895695;29;20052;-86
2022/05/01 05:09:55;;;;;;;21.23;14.85;;;7.90;99.90;;;;;;4896738;29;20047;-87
2022/05/01 05:12:25;;;;;;;17.63;13.32;;;8.00;99.90;;;;;;4897135;29;20063;-87
2022/05/01 05:14:55;;;;;;;16.17;13.55;;;8.10;99.90;;;;;;4912014;29;20063;-86
2022/05/01 05:17:23;;;;;;;20.83;15.20;;;8.00;99.90;;;;;;4896588;29;20056;-87
2022/05/01 05:19:53;;;;;;;20.45;13.50;;;8.00;99.90;;;;;;4886586;29;20048;-86
2022/05/01 05:22:28;;;;;;;;;;;8.10;99.90;;;;;;4928405;28;20491;-86
2022/05/01 05:25:11;;;;;;;25.15;16.90;;;8.10;99.90;;;;;;4914416;29;19934;-86
2022/05/01 05:27:45;;;;;;;21.38;13.68;;;8.10;99.90;;;;;;4916399;29;20772;-86
2022/05/01 05:30:35;;;;;;;16.65;14.32;;;8.10;99.90;;;;;;4959395;28;20050;-86
2022/05/01 05:33:27;;;;;;;21.42;16.40;;;8.10;99.90;;;;;;4912849;29;20059;-86
2022/05/01 05:35:57;;;;;;;17.75;13.50;;;8.10;99.90;;;;;;4890426;29;20052;-86
2022/05/01 05:38:52;;;;;;;21.65;17.63;;;8.00;99.90;;;;;;4934916;29;20836;-86
2022/05/01 05:41:49;;;;;;;23.83;18.05;;;8.00;99.90;;;;;;4938196;28;20067;-86
2022/05/01 05:45:07;;;;;;;24.30;15.77;;;8.00;99.90;;;;;;4917784;29;20059;-88
2022/05/01 05:52:53;;;;;;;21.85;18.52;;;8.10;99.90;;;;;;4937511;29;20422;-87
2022/05/01 05:56:14;;;;;;;22.08;16.08;;;8.10;99.90;;;;;;4916978;29;20047;-87
2022/05/01 06:03:51;;;;;;;22.63;16.73;;;8.00;99.90;;;;;;4924471;28;20058;-87
2022/05/01 06:07:29;;;;;;;21.08;15.07;;;8.10;99.90;;;;;;4969018;28;20306;-87
2022/05/01 06:11:51;;;;;;;21.48;14.98;;;8.00;99.90;;;;;;4923702;28;20051;-87
2022/05/01 06:31:47;;;;;;;;;;;;;;;;;;;;;
2022/05/01 07:03:11;;;;;;;28.25;18.70;;;8.50;99.90;;;;;;4934312;28;20039;-86
2022/05/01 07:06:13;;;;;;;23.00;18.15;;;8.50;99.90;;;;;;4902593;28;20055;-85
2022/05/01 07:09:35;;;;;;;27.38;17.90;;;8.50;99.90;;;;;;4906709;29;20062;-86
2022/05/01 07:12:59;;;;;;;21.60;16.38;;;8.50;99.90;;;;;;4882508;29;20051;-87
2022/05/01 07:17:32;;;;;;;27.27;18.67;;;8.60;99.90;;;;;;4891432;29;20067;-87
2022/05/01 07:21:05;;;;;;;24.75;16.80;;;8.80;99.90;;;;;;4826075;29;20050;-85
2022/05/01 07:29:32;;;;;;;22.25;18.02;;;8.70;99.90;;;;;;4897761;29;20091;-86
2022/05/01 07:39:08;;;;;;;;;;;;;;;;;;;;;
2022/05/01 07:57:05;;;;;;;19.73;13.65;;;8.80;99.90;;;;;;4884188;29;20067;-85
2022/05/01 07:59:33;;;;;;;23.90;18.08;;;8.70;99.90;;;;;;4858127;29;20052;-85
2022/05/01 08:02:04;;;;;;;23.63;14.93;;;8.80;99.90;;;;;;4970578;28;20047;-86
2022/05/01 08:04:33;;;;;;;21.10;17.95;;;8.60;99.90;;;;;;4954591;28;20054;-85
2022/05/01 08:07:13;;;;;;;19.42;15.55;;;8.60;99.90;;;;;;4961668;28;20057;-86
2022/05/01 08:10:07;;;;;;;21.50;15.60;;;8.50;99.90;;;;;;4968245;28;20053;-86
2022/05/01 08:13:38;;;;;;;24.70;18.80;;;8.50;99.90;;;;;;4901877;29;20072;-85
2022/05/01 08:16:06;;;;;;;23.52;18.83;;;8.70;99.90;;;;;;4914649;29;20055;-85
2022/05/01 08:22:07;;;;;;;28.80;21.75;;;8.60;99.90;;;;;;5074063;23;20068;-86
2022/05/01 08:30:51;;;;;;;23.52;16.95;;;8.60;99.90;;;;;;4920972;28;20051;-86
2022/05/01 08:33:59;;;;;;;27.10;16.95;;;8.60;99.90;;;;;;4879939;29;20063;-84
2022/05/01 08:37:43;;;;;;;27.52;19.63;;;8.70;99.90;;;;;;4889318;29;20463;-86
2022/05/01 08:40:15;;;;;;;22.33;16.48;;;8.80;99.90;;;;;;4895407;28;20384;-86
2022/05/01 08:43:41;;;;;;;20.75;17.60;;;8.70;99.90;;;;;;4969926;28;20061;-88
2022/05/01 08:47:10;;;;;;;23.55;14.75;;;8.70;99.90;;;;;;4905273;28;20089;-86
2022/05/01 08:53:19;;;;;;;27.60;19.50;;;8.80;99.90;;;;;;4937443;28;20093;-86
2022/05/01 08:55:47;;;;;;;24.67;19.48;;;8.80;99.90;;;;;;4963085;28;20812;-86
2022/05/01 08:58:16;;;;;;;24.63;19.02;;;8.80;99.90;;;;;;4963828;28;20043;-83
2022/05/01 09:00:45;;;;;;;25.40;16.15;;;8.90;99.90;;;;;;4945484;28;20050;-80
2022/05/01 09:03:13;;;;;;;23.92;16.17;;;8.90;99.90;;;;;;4964053;28;20599;-85
2022/05/01 09:05:41;;;;;;;25.05;16.85;;;8.80;99.90;;;;;;4964555;28;20050;-84
2022/05/01 09:08:29;;;;;;;27.67;19.17;;;8.90;99.90;;;;;;4965685;28;20059;-81
2022/05/01 09:15:37;;;;;;;28.33;16.98;;;9.00;99.90;;;;;;4942704;28;20039;-86
2022/05/01 09:18:54;;;;;;;23.95;17.50;;;9.20;99.90;;;;;;4958480;28;20038;-84
2022/05/01 09:22:09;;;;;;;22.95;16.52;;;9.20;99.90;;;;;;4963213;28;20058;-87
2022/05/01 09:24:55;;;;;;;30.40;19.08;;;9.20;99.90;;;;;;4931574;29;20051;-87
2022/05/01 09:27:32;;;;;;;31.52;20.33;;;9.10;99.90;;;;;;4931332;29;20059;-87
2022/05/01 09:30:08;;;;;;;22.75;15.57;;;8.90;99.90;;;;;;4930926;29;20047;-86
2022/05/01 09:32:37;;;;;;;18.60;13.57;;;9.00;99.90;;;;;;4947396;29;20078;-87
2022/05/01 09:35:07;;;;;;;26.95;18.10;;;9.00;99.90;;;;;;4940690;29;20052;-85
2022/05/01 09:37:35;;;;;;;28.05;19.35;;;8.90;99.90;;;;;;4945949;28;20054;-86
2022/05/01 09:40:03;;;;;;;33.15;17.05;;;8.80;99.90;;;;;;4931853;29;20055;-86
2022/05/01 09:42:35;;;;;;;26.40;19.25;;;8.80;99.90;;;;;;4930706;29;20047;-86
2022/05/01 09:45:12;;;;;;;22.73;16.13;;;8.80;99.90;;;;;;4947405;29;20047;-86
2022/05/01 09:47:42;;;;;;;34.85;20.27;;;8.90;99.90;;;;;;4946592;29;20054;-85
2022/05/01 09:50:11;;;;;;;40.78;18.77;;;8.80;99.90;;;;;;4949728;28;20053;-87
2022/05/01 09:52:58;;;;;;;33.20;23.73;;;8.90;99.90;;;;;;4932465;28;20074;-86
2022/05/01 09:55:28;;;;;;;27.02;17.15;;;8.80;99.90;;;;;;4930838;29;20051;-85
2022/05/01 09:58:09;;;;;;;25.65;19.10;;;8.90;99.90;;;;;;4930596;29;20043;-84
2022/05/01 10:00:44;;;;;;;20.90;15.27;;;8.80;99.90;;;;;;4930944;29;20062;-86
2022/05/01 10:03:19;;;;;;;33.78;21.88;;;8.70;99.90;;;;;;4946622;29;20047;-84
2022/05/01 10:05:48;;;;;;;25.70;17.45;;;8.70;99.90;;;;;;4930715;28;20062;-85
2022/05/01 10:08:18;;;;;;;24.88;17.30;;;8.60;99.90;;;;;;4946539;29;20051;-85
2022/05/01 10:10:52;;;;;;;19.33;13.90;;;8.50;99.90;;;;;;4947761;28;20050;-84
2022/05/01 10:13:24;;;;;;;23.33;16.52;;;8.50;99.90;;;;;;4955356;28;20046;-86
2022/05/01 10:16:09;;;;;;;21.27;14.75;;;8.50;99.90;;;;;;4967859;28;20058;-85
2022/05/01 10:18:46;;;;;;;24.13;16.25;;;8.60;99.90;;;;;;4969212;28;20053;-86
2022/05/01 10:21:36;;;;;;;29.05;17.95;;;8.60;99.90;;;;;;4970456;28;20505;-87
2022/05/01 10:24:04;;;;;;;21.60;16.52;;;8.70;99.90;;;;;;4953785;28;20058;-87
2022/05/01 10:26:38;;;;;;;24.40;13.52;;;8.80;99.90;;;;;;4970689;28;20065;-86
2022/05/01 10:29:28;;;;;;;20.13;15.32;;;8.90;99.90;;;;;;4970689;28;20058;-87
2022/05/01 10:32:27;;;;;;;22.42;14.48;;;9.00;99.90;;;;;;4957720;28;20058;-87
2022/05/01 10:35:26;;;;;;;19.33;14.93;;;9.00;99.90;;;;;;4951100;28;20039;-85
2022/05/01 10:38:12;;;;;;;23.95;16.48;;;9.10;99.90;;;;;;4964731;28;20043;-87
2022/05/01 10:40:51;;;;;;;20.58;15.57;;;9.20;99.90;;;;;;4951645;29;20051;-84
2022/05/01 10:43:30;;;;;;;26.70;18.13;;;9.30;99.90;;;;;;4950846;28;20406;-85
2022/05/01 10:46:00;;;;;;;19.73;12.32;;;9.30;99.90;;;;;;4950604;28;20039;-85
2022/05/01 10:48:37;;;;;;;21.33;13.95;;;9.40;99.90;;;;;;4951414;29;20493;-85
2022/05/01 10:54:15;;;;;;;19.25;15.82;;;9.30;99.90;;;;;;4969944;28;20054;-85
2022/05/01 10:56:45;;;;;;;;;;;9.40;99.90;;;;;;4970274;28;20050;-84
2022/05/01 10:59:34;;;;;;;18.63;12.68;;;9.30;99.90;;;;;;4969580;28;20277;-84
2022/05/01 11:02:47;;;;;;;26.60;15.45;;;9.20;99.90;;;;;;4969941;28;20054;-86
2022/05/01 11:05:40;;;;;;;16.98;11.68;;;9.30;99.90;;;;;;4909335;29;20486;-86
2022/05/01 11:08:23;;;;;;;16.73;13.10;;;9.30;99.90;;;;;;4964277;28;20050;-86
2022/05/01 11:10:56;;;;;;;19.50;16.67;;;9.50;99.90;;;;;;4949228;29;20055;-86
2022/05/01 11:13:35;;;;;;;17.73;13.35;;;9.60;99.90;;;;;;4956285;28;20505;-85
2022/05/01 11:16:04;;;;;;;21.48;15.90;;;9.70;99.90;;;;;;4952267;28;20827;-85
2022/05/01 11:18:40;;;;;;;23.02;14.48;;;9.80;99.90;;;;;;4968923;28;20058;-86
2022/05/01 11:21:20;;;;;;;21.60;15.00;;;9.70;99.90;;;;;;4974125;28;20054;-86
2022/05/01 11:24:01;;;;;;;21.95;16.15;;;9.90;99.90;;;;;;5007390;28;20045;-86
2022/05/01 11:26:29;;;;;;;26.55;16.50;;;10.00;99.90;;;;;;5008123;28;20440;-86
2022/05/01 11:29:13;;;;;;;21.88;15.43;;;10.10;99.90;;;;;;4990587;28;20065;-86
2022/05/01 11:31:49;;;;;;;25.48;15.07;;;10.20;99.90;;;;;;5007765;28;20065;-84
2022/05/01 11:34:17;;;;;;;19.77;13.35;;;10.20;99.90;;;;;;5007592;28;20053;-86
2022/05/01 11:37:03;;;;;;;14.35;12.85;;;10.30;99.90;;;;;;5007630;28;20607;-86
2022/05/01 11:39:48;;;;;;;19.92;13.70;;;10.30;99.90;;;;;;4988211;28;20061;-86
2022/05/01 11:42:41;;;;;;;18.15;12.88;;;10.40;99.90;;;;;;4993960;28;20053;-86
2022/05/01 11:45:11;;;;;;;18.65;11.93;;;10.50;99.90;;;;;;4999715;28;20050;-86
2022/05/01 11:47:40;;;;;;;14.77;12.38;;;10.50;99.90;;;;;;5007518;28;20493;-86
2022/05/01 11:50:18;;;;;;;13.02;11.57;;;10.60;99.90;;;;;;5006773;28;20066;-86
2022/05/01 11:52:49;;;;;;;31.35;14.55;;;10.50;99.90;;;;;;4989924;28;20603;-86
2022/05/01 11:55:21;;;;;;;15.75;12.77;;;10.50;99.90;;;;;;5007701;28;20038;-86
2022/05/01 12:03:32;;;;;;;21.92;13.82;;;10.20;99.90;;;;;;4973750;28;20073;-86
2022/05/01 12:06:00;;;;;;;17.23;12.63;;;10.00;99.90;;;;;;4989397;28;20053;-86
2022/05/01 12:08:28;;;;;;;24.85;16.42;;;9.80;99.90;;;;;;5007430;28;20485;-86
2022/05/01 12:10:55;;;;;;;18.90;14.73;;;9.70;99.90;;;;;;5007545;28;20054;-86
2022/05/01 12:13:27;;;;;;;22.13;16.45;;;9.70;99.90;;;;;;4990496;28;20056;-84
2022/05/01 12:22:00;;;;;;;21.50;13.90;;;9.70;99.90;;;;;;4915723;29;20141;-88
2022/05/01 12:24:28;;;;;;;18.83;14.20;;;9.80;99.90;;;;;;4884555;28;20051;-81
2022/05/01 12:26:56;;;;;;;20.17;15.05;;;9.80;99.90;;;;;;4968831;28;20077;-82
2022/05/01 12:29:26;;;;;;;19.05;14.25;;;9.70;99.90;;;;;;4969036;28;20050;-82
2022/05/01 12:32:06;;;;;;;18.90;14.77;;;9.70;99.90;;;;;;4967917;28;20054;-82
2022/05/01 12:34:40;;;;;;;20.00;14.70;;;9.90;99.90;;;;;;4968050;28;20049;-82
2022/05/01 12:37:12;;;;;;;16.88;13.68;;;10.00;99.90;;;;;;4968025;28;20046;-82
2022/05/01 12:44:56;;;;;;;;;;;;;;;;;;;;;
2022/05/01 12:49:36;;;;;;;18.70;12.02;;;9.80;99.90;;;;;;4842736;29;20869;-87
2022/05/01 13:12:46;;;;;;;21.70;15.43;;;10.70;99.90;;;;;;4866104;29;20049;-88
2022/05/01 13:19:22;;;;;;;20.98;13.80;;;10.80;99.90;;;;;;4875794;28;20056;-87
2022/05/01 13:22:21;;;;;;;22.73;15.52;;;10.90;99.90;;;;;;4969088;28;20046;-86
2022/05/01 13:25:12;;;;;;;17.50;15.65;;;10.70;99.90;;;;;;4970093;28;20481;-87
2022/05/01 13:27:50;;;;;;;21.38;14.57;;;10.80;99.90;;;;;;4922583;28;20047;-86
2022/05/01 13:30:50;;;;;;;22.67;15.82;;;10.90;99.90;;;;;;4917807;29;20059;-87
2022/05/01 13:34:18;;;;;;;29.35;26.05;;;11.00;99.90;;;;;;4898983;28;20051;-87
2022/05/01 13:51:48;;;;;;;;;;;;;;;;;;;;;
2022/05/01 15:08:44;;;;;;;16.35;13.32;;;12.90;99.90;;;;;;5006689;28;20787;-74
2022/05/01 15:11:14;;;;;;;16.45;12.13;;;12.90;99.90;;;;;;5013268;28;20037;-85
2022/05/01 15:13:43;;;;;;;17.73;14.40;;;12.80;99.90;;;;;;4972314;28;20812;-85
2022/05/01 15:16:28;;;;;;;15.15;10.07;;;12.60;99.90;;;;;;5005698;28;20045;-84
2022/05/01 15:19:12;;;;;;;18.13;13.40;;;12.40;99.90;;;;;;5007512;28;20050;-86
2022/05/01 15:24:47;;;;;;;14.43;12.60;;;12.90;99.90;;;;;;5007384;28;20056;-85
2022/05/01 15:27:44;;;;;;;22.38;14.10;;;13.30;99.90;;;;;;5008541;28;20053;-86
2022/05/01 15:30:21;;;;;;;15.50;13.27;;;13.50;99.90;;;;;;4967428;28;20502;-84
2022/05/01 15:35:41;;;;;;;;;;;13.40;99.90;;;;;;4997946;28;20413;-84
2022/05/01 15:38:27;;;;;;;13.30;11.82;;;13.10;99.90;;;;;;4992968;28;19929;-84
2022/05/01 15:41:17;;;;;;;15.07;9.70;;;12.90;99.90;;;;;;5007850;28;20058;-84
2022/05/01 15:43:48;;;;;;;12.90;11.77;;;12.70;99.90;;;;;;4971165;28;20050;-84
2022/05/01 15:46:22;;;;;;;12.48;10.07;;;12.80;99.90;;;;;;4985972;28;20041;-85
2022/05/01 15:54:30;;;;;;;12.45;11.23;;;12.90;99.90;;;;;;4986087;28;20050;-83
2022/05/01 15:57:01;;;;;;;13.20;8.93;;;13.20;99.90;;;;;;4989625;28;20053;-85
2022/05/01 15:59:32;;;;;;;11.05;9.82;;;13.40;99.90;;;;;;5007159;28;20416;-85
2022/05/01 16:02:05;;;;;;;11.45;9.60;;;13.30;99.90;;;;;;5001715;28;20049;-85
2022/05/01 16:04:34;;;;;;;10.35;9.10;;;13.40;99.90;;;;;;4988524;28;20130;-85
2022/05/01 16:07:09;;;;;;;12.95;11.30;;;13.30;99.90;;;;;;4997298;28;20050;-83
2022/05/01 16:10:06;;;;;;;11.25;9.27;;;13.10;99.90;;;;;;4998502;28;20061;-84
2022/05/01 16:12:45;;;;;;;12.27;9.15;;;13.10;99.90;;;;;;4985377;28;20069;-85
2022/05/01 16:16:05;;;;;;;9.85;8.63;;;13.00;99.90;;;;;;4987638;28;20076;-84
2022/05/01 16:19:25;;;;;;;11.30;8.35;;;12.90;99.90;;;;;;4991938;28;20056;-84
2022/05/01 16:22:29;;;;;;;9.38;7.65;;;12.80;99.90;;;;;;4974779;28;20057;-84
2022/05/01 16:25:06;;;;;;;11.52;9.63;;;12.80;99.90;;;;;;4974600;28;20060;-84
2022/05/01 16:27:36;;;;;;;10.98;8.07;;;12.60;99.90;;;;;;5007649;28;20046;-86
2022/05/01 16:30:08;;;;;;;10.13;9.10;;;12.60;99.90;;;;;;4989814;28;20045;-85
2022/05/01 16:48:04;;;;;;;9.75;8.82;;;11.90;99.90;;;;;;4960122;28;20065;-86
2022/05/01 16:51:00;;;;;;;12.10;9.40;;;11.80;99.90;;;;;;4925721;29;20142;-87
2022/05/01 16:53:56;;;;;;;10.50;9.60;;;11.80;99.90;;;;;;4952724;28;20049;-87
2022/05/01 16:56:38;;;;;;;12.65;8.55;;;11.80;99.90;;;;;;4957021;28;20405;-89
2022/05/01 16:59:19;;;;;;;12.98;10.43;;;11.70;99.90;;;;;;4950354;28;20054;-85
2022/05/01 17:02:50;;;;;;;11.23;8.90;;;11.60;99.90;;;;;;4978520;28;20044;-87
2022/05/01 17:06:02;;;;;;;13.50;8.88;;;11.50;99.90;;;;;;4954033;28;20061;-88
2022/05/01 17:09:17;;;;;;;9.57;8.48;;;11.50;99.90;;;;;;4976963;28;20057;-87
2022/05/01 17:12:57;;;;;;;13.02;9.88;;;11.50;99.90;;;;;;4976565;28;20042;-86
2022/05/01 17:15:32;;;;;;;12.52;10.50;;;11.40;99.90;;;;;;4987615;28;20050;-79
2022/05/01 17:18:13;;;;;;;12.45;10.73;;;11.40;99.90;;;;;;4989127;28;20045;-85
2022/05/01 17:21:17;;;;;;;28.88;11.85;;;11.30;99.90;;;;;;5004032;28;20069;-85
2022/05/01 17:24:53;;;;;;;16.45;11.45;;;11.30;99.90;;;;;;5002392;28;20783;-86
2022/05/01 17:28:00;;;;;;;15.32;10.65;;;11.30;99.90;;;;;;5005937;28;20046;-86
2022/05/01 17:31:11;;;;;;;18.02;11.38;;;11.30;99.90;;;;;;4993374;28;20041;-87
2022/05/01 17:34:36;;;;;;;16.77;12.93;;;11.30;99.90;;;;;;5003516;28;20055;-88
2022/05/01 17:37:32;;;;;;;17.10;11.60;;;11.20;99.90;;;;;;4989472;28;20050;-87
2022/05/01 17:40:52;;;;;;;15.43;10.50;;;11.20;99.90;;;;;;4989094;28;20053;-88
2022/05/01 17:44:01;;;;;;;13.52;10.27;;;11.20;99.90;;;;;;5004210;28;20038;-87
2022/05/01 17:46:49;;;;;;;12.85;9.55;;;11.20;99.90;;;;;;4994428;28;20046;-87
2022/05/01 17:49:30;;;;;;;13.82;10.60;;;11.20;99.90;;;;;;5011612;28;20049;-87
2022/05/01 17:52:03;;;;;;;19.73;13.88;;;11.00;99.90;;;;;;5026363;28;20038;-87
2022/05/01 17:54:37;;;;;;;12.65;8.48;;;11.00;99.90;;;;;;5002619;28;20041;-87
2022/05/01 17:57:11;;;;;;;17.23;11.43;;;10.90;99.90;;;;;;5011857;28;20056;-87
2022/05/01 17:59:43;;;;;;;16.90;12.77;;;10.70;99.90;;;;;;4994251;28;20053;-88
2022/05/01 18:02:34;;;;;;;18.10;10.57;;;10.60;99.90;;;;;;4995841;28;20038;-87
2022/05/01 18:12:36;;;;;;;11.88;9.45;;;10.30;99.90;;;;;;4987548;28;20052;-87
2022/05/01 18:16:54;;;;;;;12.25;10.65;;;9.90;99.90;;;;;;4930871;28;20066;-87
2022/05/01 18:20:31;;;;;;;12.25;8.52;;;9.60;99.90;;;;;;4922507;29;20514;-87
2022/05/01 18:28:07;;;;;;;9.55;8.48;;;9.50;99.90;;;;;;4921722;29;20417;-85
2022/05/01 18:31:04;;;;;;;17.90;12.00;;;9.40;99.90;;;;;;4968490;28;20054;-86
2022/05/01 18:33:43;;;;;;;14.15;11.35;;;9.50;99.90;;;;;;4950146;28;20055;-87
2022/05/01 18:36:38;;;;;;;13.80;11.07;;;9.30;99.90;;;;;;4949062;28;20058;-87
2022/05/01 18:39:31;;;;;;;14.80;10.15;;;9.20;99.90;;;;;;4951408;28;20042;-87
2022/05/01 18:42:12;;;;;;;14.73;11.07;;;9.10;99.90;;;;;;4963461;28;20813;-86
2022/05/01 18:44:55;;;;;;;18.80;12.00;;;9.00;99.90;;;;;;4951251;28;20050;-86
2022/05/01 18:47:26;;;;;;;11.43;9.77;;;8.90;99.90;;;;;;4943190;28;20054;-85
2022/05/01 18:49:56;;;;;;;15.27;13.80;;;8.80;99.90;;;;;;4998480;28;20050;-85